< < Back
Terminal Aerodrome Forecast


Current Version              Previous Versions:   1  2  3  4  5  6  7  8  9  

Terminal Aerodrome Forecast

833
FTUS42 KILM 050121 AAA
TAFFLO
TAF AMD
KFLO 050121Z 0501/0524 16003KT P6SM VCTS SCT025CB BKN060 OVC200
      TEMPO 0502/0503 VRB15G25KT 3SM -TSRA BKN030CB OVC060
     FM050330 00000KT P6SM SCT150 BKN250
     FM050900 03005KT P6SM SCT005 BKN011
      TEMPO 0510/0514 BKN005
     FM051500 04010KT P6SM BKN045
     FM051900 05010KT P6SM VCTS SCT040CB BKN060=

Latest METAR

976
SAUS70 KWBC 050500 RRA
MTRFLO
METAR KFLO 050453Z AUTO 36004KT 10SM CLR 22/20 A3005 RMK AO2 LTG DSNT
S-W SLP171 T02170200 403440217


USA.gov is the U.S. government's official web portal to all federal, state and local government web resources and services.